Time;durP1;ratioP1;P1;durP2;ratioP2;P2;SDS_P1;SDS_P2;PMS_P1;PMS_P2;Temp;Humidity;BMP_temperature;BMP_pressure;BME280_temperature;BME280_humidity;BME280_pressure;Samples;Min_cycle;Max_cycle;Signal;HPM_P1;HPM_P2
2021/12/28 00:01:16;;;;;;;45.10;20.83;;;;;;;-0.21;100.00;99401.41;7395753;19;20576;-53
2021/12/28 00:03:47;;;;;;;43.17;19.52;;;;;;;-0.21;100.00;99405.59;7400590;19;20146;-48
2021/12/28 00:06:17;;;;;;;45.85;21.20;;;;;;;-0.16;100.00;99405.09;7392942;19;20459;-55
2021/12/28 00:08:47;;;;;;;49.95;23.38;;;;;;;-0.11;100.00;99402.00;7397559;19;20239;-50
2021/12/28 00:11:17;;;;;;;40.05;20.02;;;;;;;-0.10;100.00;99398.66;7394331;19;20191;-53
2021/12/28 00:13:49;;;;;;;38.70;19.70;;;;;;;-0.12;100.00;99401.09;7398871;19;20118;-50
2021/12/28 00:16:30;;;;;;;48.58;23.40;;;;;;;-0.11;100.00;99391.84;7394533;19;20191;-55
2021/12/28 00:19:02;;;;;;;46.83;22.40;;;;;;;-0.07;100.00;99388.69;7401595;19;20177;-55
2021/12/28 00:21:31;;;;;;;42.10;20.95;;;;;;;-0.10;100.00;99391.06;7393895;19;20187;-49
2021/12/28 00:24:02;;;;;;;44.42;21.63;;;;;;;-0.09;100.00;99383.56;7398548;19;20130;-50
2021/12/28 00:26:31;;;;;;;44.30;21.67;;;;;;;-0.13;100.00;99384.13;7398357;19;20193;-52
2021/12/28 00:29:03;;;;;;;48.88;20.42;;;;;;;-0.11;100.00;99381.69;7396763;19;20160;-51
2021/12/28 00:31:33;;;;;;;51.30;21.67;;;;;;;-0.16;100.00;99374.69;7392612;19;20197;-54
2021/12/28 00:34:02;;;;;;;45.45;21.30;;;;;;;0.01;100.00;99369.78;7398427;19;20119;-51
2021/12/28 00:36:32;;;;;;;43.92;20.30;;;;;;;0.03;100.00;99370.75;7394330;19;20190;-51
2021/12/28 00:39:01;;;;;;;45.92;22.55;;;;;;;0.01;100.00;99366.34;7396685;19;20520;-52
2021/12/28 00:41:31;;;;;;;44.47;21.20;;;;;;;0.10;100.00;99369.47;7393615;19;20190;-49
2021/12/28 00:44:03;;;;;;;43.45;21.83;;;;;;;0.03;100.00;99370.75;7398097;19;20514;-47
2021/12/28 00:46:32;;;;;;;43.63;20.13;;;;;;;-0.05;100.00;99370.25;7394406;19;20190;-49
2021/12/28 00:49:02;;;;;;;59.10;26.60;;;;;;;0.00;100.00;99373.09;7397429;19;20158;-51
2021/12/28 00:51:31;;;;;;;37.53;19.27;;;;;;;0.01;100.00;99372.31;7389844;19;20209;-52
2021/12/28 00:54:01;;;;;;;39.67;20.52;;;;;;;0.02;100.00;99366.47;7397796;19;20186;-51
2021/12/28 00:56:30;;;;;;;47.33;21.80;;;;;;;0.10;100.00;99362.72;7393759;19;20245;-54
2021/12/28 00:59:02;;;;;;;55.95;23.92;;;;;;;0.08;100.00;99358.34;7396124;19;20161;-48
2021/12/28 01:01:32;;;;;;;45.00;21.38;;;;;;;0.16;100.00;99361.34;7394409;19;20194;-54
2021/12/28 01:04:02;;;;;;;49.28;21.25;;;;;;;0.19;100.00;99351.38;7397580;19;20139;-49
2021/12/28 01:06:31;;;;;;;42.83;20.35;;;;;;;0.20;100.00;99354.00;7391167;19;20200;-49
2021/12/28 01:09:01;;;;;;;46.10;20.52;;;;;;;0.16;100.00;99353.75;7395394;19;20155;-55
2021/12/28 01:11:30;;;;;;;39.50;20.25;;;;;;;0.17;100.00;99358.03;7396157;19;20194;-51
2021/12/28 01:14:02;;;;;;;42.85;19.88;;;;;;;0.13;100.00;99357.84;7405042;19;20120;-48
2021/12/28 01:16:32;;;;;;;38.90;19.13;;;;;;;0.10;100.00;99349.19;7400818;19;20186;-52
2021/12/28 01:19:01;;;;;;;41.83;20.20;;;;;;;0.13;100.00;99347.72;7406581;19;20171;-53
2021/12/28 01:21:31;;;;;;;44.33;20.60;;;;;;;0.23;100.00;99350.78;7401033;19;20253;-53
2021/12/28 01:24:00;;;;;;;43.22;20.75;;;;;;;0.12;100.00;99345.94;7404325;19;20123;-53
2021/12/28 01:26:31;;;;;;;41.28;20.45;;;;;;;0.09;100.00;99343.22;7397181;19;20195;-51
2021/12/28 01:29:03;;;;;;;40.22;21.73;;;;;;;0.20;100.00;99331.19;7401804;19;20159;-50
2021/12/28 01:31:33;;;;;;;42.78;20.92;;;;;;;0.17;100.00;99340.28;7399572;19;20192;-52
2021/12/28 01:34:02;;;;;;;39.65;20.83;;;;;;;0.18;100.00;99334.41;7404057;19;20179;-52
2021/12/28 01:36:32;;;;;;;45.05;21.17;;;;;;;0.13;100.00;99332.50;7399072;19;20190;-53
2021/12/28 01:39:03;;;;;;;42.35;21.45;;;;;;;0.08;100.00;99328.78;7398269;19;20159;-53
2021/12/28 01:41:33;;;;;;;45.80;20.48;;;;;;;0.04;100.00;99336.97;7397283;19;20186;-50
2021/12/28 01:44:08;;;;;;;45.17;21.00;;;;;;;0.10;100.00;99324.69;7400704;19;20134;-51
2021/12/28 01:46:38;;;;;;;40.55;19.90;;;;;;;0.09;100.00;99328.00;7395488;19;20192;-51
2021/12/28 01:49:10;;;;;;;49.85;22.63;;;;;;;0.15;100.00;99329.16;7404090;19;20143;-53
2021/12/28 01:51:40;;;;;;;46.13;21.83;;;;;;;0.15;100.00;99329.16;7396693;19;20186;-56
2021/12/28 01:54:09;;;;;;;37.25;18.65;;;;;;;0.06;100.00;99325.25;7400937;19;20130;-53
2021/12/28 01:56:42;;;;;;;48.42;20.48;;;;;;;-0.04;100.00;99317.91;7396750;19;20186;-49
2021/12/28 01:59:16;;;;;;;43.70;21.02;;;;;;;0.08;100.00;99312.69;7401457;19;20190;-52
2021/12/28 02:01:47;;;;;;;45.00;22.50;;;;;;;0.16;100.00;99308.06;7399745;19;20176;-52
2021/12/28 02:04:18;;;;;;;43.55;20.60;;;;;;;0.11;100.00;99308.66;7403108;19;20122;-49
2021/12/28 02:06:48;;;;;;;47.83;22.35;;;;;;;0.08;100.00;99305.97;7400653;19;20258;-53
2021/12/28 02:09:18;;;;;;;43.13;21.30;;;;;;;0.14;100.00;99313.06;7404466;19;20123;-52
2021/12/28 02:11:48;;;;;;;44.60;21.05;;;;;;;-0.01;100.00;99307.94;7401708;19;20179;-52
2021/12/28 02:14:22;;;;;;;42.00;20.83;;;;;;;-0.02;100.00;99301.09;7401651;19;20175;-54
2021/12/28 02:16:51;;;;;;;47.42;20.52;;;;;;;0.03;100.00;99294.66;7402082;19;20127;-52
2021/12/28 02:19:21;;;;;;;41.13;20.05;;;;;;;0.05;100.00;99292.22;7399736;19;20205;-51
2021/12/28 02:21:54;;;;;;;42.72;20.50;;;;;;;0.05;100.00;99282.94;7401578;19;20187;-53
2021/12/28 02:24:23;;;;;;;47.45;20.90;;;;;;;0.03;100.00;99286.16;7403686;19;20137;-55
2021/12/28 02:26:52;;;;;;;46.53;21.85;;;;;;;-0.02;100.00;99280.81;7401417;19;20195;-51
2021/12/28 02:29:22;;;;;;;46.88;21.13;;;;;;;-0.02;100.00;99275.75;7399439;19;20518;-51
2021/12/28 02:31:55;;;;;;;41.20;19.70;;;;;;;-0.04;100.00;99279.84;7400712;19;20123;-53
2021/12/28 02:34:26;;;;;;;46.65;21.70;;;;;;;0.00;100.00;99279.28;7397406;19;20123;-51
2021/12/28 02:36:59;;;;;;;37.22;19.52;;;;;;;-0.06;100.00;99272.16;7401245;19;20134;-54
2021/12/28 02:39:28;;;;;;;44.92;20.00;;;;;;;-0.02;100.00;99274.09;7399033;19;20391;-52
2021/12/28 02:41:58;;;;;;;41.95;20.92;;;;;;;0.02;100.00;99272.63;7402056;19;20123;-49
2021/12/28 02:44:27;;;;;;;47.35;22.70;;;;;;;0.02;100.00;99280.22;7399017;19;20227;-50
2021/12/28 02:46:57;;;;;;;49.95;21.88;;;;;;;0.05;100.00;99275.31;7400869;19;20137;-52
2021/12/28 02:49:26;;;;;;;48.72;21.92;;;;;;;0.08;100.00;99267.91;7399083;19;20123;-52
2021/12/28 02:51:58;;;;;;;50.45;22.70;;;;;;;0.08;100.00;99269.56;7400671;19;20119;-52
2021/12/28 02:54:28;;;;;;;50.92;22.67;;;;;;;0.17;100.00;99259.09;7397806;19;20404;-52
2021/12/28 02:56:57;;;;;;;46.88;21.55;;;;;;;0.01;100.00;99258.19;7400767;19;20123;-49
2021/12/28 02:59:33;;;;;;;41.67;21.73;;;;;;;0.00;100.00;99258.97;7399599;19;20133;-50
2021/12/28 03:02:02;;;;;;;44.20;20.98;;;;;;;0.05;100.00;99256.72;7403628;19;20142;-49
2021/12/28 03:04:32;;;;;;;44.03;21.52;;;;;;;0.08;100.00;99252.69;7398077;19;20522;-50
2021/12/28 03:07:04;;;;;;;48.35;21.48;;;;;;;0.11;100.00;99252.88;7400253;19;20158;-52
2021/12/28 03:09:34;;;;;;;48.95;23.65;;;;;;;0.14;100.00;99252.16;7397577;19;20392;-48
2021/12/28 03:12:03;;;;;;;48.17;22.63;;;;;;;0.17;100.00;99256.56;7401057;19;20131;-52
2021/12/28 03:14:33;;;;;;;47.50;22.00;;;;;;;0.16;100.00;99259.88;7396164;19;20119;-55
2021/12/28 03:17:03;;;;;;;44.67;22.65;;;;;;;0.30;100.00;99265.78;7400170;19;20183;-49
2021/12/28 03:19:33;;;;;;;45.47;22.48;;;;;;;0.44;100.00;99261.50;7396891;19;20135;-50
2021/12/28 03:22:05;;;;;;;46.78;21.55;;;;;;;0.34;100.00;99250.81;7401312;19;20180;-53
2021/12/28 03:24:35;;;;;;;47.42;21.55;;;;;;;0.46;100.00;99255.72;7398375;19;20123;-55
2021/12/28 03:27:05;;;;;;;45.13;22.25;;;;;;;0.50;100.00;99246.63;7400267;19;20471;-50
2021/12/28 03:29:34;;;;;;;47.47;21.25;;;;;;;0.37;100.00;99245.91;7396348;19;20125;-56
2021/12/28 03:32:03;;;;;;;47.70;22.42;;;;;;;0.33;100.00;99244.00;7399628;19;20135;-49
2021/12/28 03:34:33;;;;;;;45.03;21.15;;;;;;;0.45;100.00;99238.75;7395301;19;20135;-51
2021/12/28 03:37:05;;;;;;;47.13;21.77;;;;;;;0.55;100.00;99240.16;7399336;19;20169;-51
2021/12/28 03:39:35;;;;;;;46.90;22.05;;;;;;;0.42;100.00;99233.50;7396928;19;20537;-53
2021/12/28 03:42:05;;;;;;;48.30;22.48;;;;;;;0.40;100.00;99233.41;7400919;19;20127;-56
2021/12/28 03:44:34;;;;;;;46.13;21.02;;;;;;;0.51;100.00;99223.00;7393742;19;20129;-54
2021/12/28 03:47:06;;;;;;;44.55;20.95;;;;;;;0.58;100.00;99214.97;7399103;19;20154;-54
2021/12/28 03:49:36;;;;;;;46.97;21.30;;;;;;;0.74;100.00;99210.72;7399031;19;20131;-52
2021/12/28 03:52:09;;;;;;;38.40;20.15;;;;;;;0.44;100.00;99210.72;7400522;19;20127;-54
2021/12/28 03:54:39;;;;;;;43.30;20.27;;;;;;;0.39;100.00;99215.56;7396568;19;20193;-53
2021/12/28 03:57:09;;;;;;;41.80;19.73;;;;;;;0.44;100.00;99210.72;7399012;19;20218;-55
2021/12/28 03:59:38;;;;;;;45.35;21.75;;;;;;;0.69;100.00;99207.06;7394367;19;20217;-48
2021/12/28 04:02:08;;;;;;;49.90;22.23;;;;;;;0.55;100.00;99199.53;7399586;19;20123;-53
2021/12/28 04:04:37;;;;;;;45.28;21.08;;;;;;;0.47;100.00;99206.69;7396038;19;20206;-54
2021/12/28 04:07:13;;;;;;;46.88;22.08;;;;;;;0.55;100.00;99194.47;7402648;19;20165;-49
2021/12/28 04:09:58;;;;;;;42.50;20.33;;;;;;;0.77;100.00;99195.69;7395585;19;20189;-55
2021/12/28 04:12:28;;;;;;;44.92;21.30;;;;;;;0.59;100.00;99196.41;7398855;19;20126;-52
2021/12/28 04:14:58;;;;;;;48.17;21.75;;;;;;;0.50;100.00;99194.22;7398519;19;20290;-49
2021/12/28 04:17:28;;;;;;;47.05;21.75;;;;;;;0.49;100.00;99191.56;7398482;19;20162;-51
2021/12/28 04:19:58;;;;;;;49.30;22.05;;;;;;;0.60;100.00;99187.97;7395831;19;20186;-50
2021/12/28 04:22:30;;;;;;;46.42;23.33;;;;;;;0.72;100.00;99186.94;7400352;19;20190;-52
2021/12/28 04:24:59;;;;;;;49.25;22.45;;;;;;;0.78;100.00;99183.06;7395643;19;20197;-49
2021/12/28 04:27:29;;;;;;;58.97;24.23;;;;;;;0.78;100.00;99188.13;7397651;19;20561;-53
2021/12/28 04:29:58;;;;;;;48.53;23.08;;;;;;;0.77;100.00;99190.59;7394427;19;20194;-51
2021/12/28 04:32:28;;;;;;;49.28;22.15;;;;;;;0.76;100.00;99193.91;7398382;19;20455;-52
2021/12/28 04:34:57;;;;;;;53.00;23.88;;;;;;;0.71;100.00;99180.09;7395337;19;20858;-51
2021/12/28 04:37:34;;;;;;;47.60;23.77;;;;;;;0.90;100.00;99177.78;7397343;19;20165;-52
2021/12/28 04:40:05;;;;;;;45.72;22.58;;;;;;;0.87;100.00;99171.69;7394514;19;20258;-49
2021/12/28 04:42:34;;;;;;;44.95;22.25;;;;;;;0.63;100.00;99175.47;7398657;19;20123;-52
2021/12/28 04:45:06;;;;;;;46.05;22.02;;;;;;;0.59;100.00;99171.00;7394402;19;20197;-52
2021/12/28 04:47:36;;;;;;;50.83;23.67;;;;;;;0.69;100.00;99166.44;7404715;19;20176;-55
2021/12/28 04:50:06;;;;;;;45.15;21.67;;;;;;;0.93;100.00;99167.78;7401964;19;20188;-53
2021/12/28 04:52:39;;;;;;;39.83;21.35;;;;;;;0.81;100.00;99174.72;7405655;19;20175;-51
2021/12/28 04:55:12;;;;;;;43.65;21.73;;;;;;;0.74;100.00;99175.19;7402375;19;20205;-51
2021/12/28 04:57:43;;;;;;;47.55;21.45;;;;;;;0.44;100.00;99175.19;7404096;19;20159;-54
2021/12/28 05:00:16;;;;;;;51.97;25.25;;;;;;;0.48;100.00;99172.06;7401777;19;20186;-50
2021/12/28 05:02:46;;;;;;;44.13;21.17;;;;;;;0.51;100.00;99167.19;7405602;19;20517;-53
2021/12/28 05:05:15;;;;;;;48.83;22.30;;;;;;;0.54;100.00;99164.78;7398675;19;20561;-51
2021/12/28 05:07:47;;;;;;;56.80;24.38;;;;;;;0.40;100.00;99169.06;7404029;19;20238;-50
2021/12/28 05:10:17;;;;;;;47.78;23.05;;;;;;;0.36;100.00;99147.72;7403086;19;20196;-51
2021/12/28 05:12:46;;;;;;;47.17;23.08;;;;;;;0.43;100.00;99160.78;7404999;19;20127;-51
2021/12/28 05:15:16;;;;;;;49.75;22.23;;;;;;;0.51;100.00;99151.94;7400950;19;20186;-50
2021/12/28 05:17:46;;;;;;;47.15;21.70;;;;;;;0.32;100.00;99144.94;7404789;19;20169;-51
2021/12/28 05:20:16;;;;;;;50.38;22.98;;;;;;;0.30;100.00;99151.59;7400499;19;20186;-53
2021/12/28 05:22:48;;;;;;;45.42;22.77;;;;;;;0.43;100.00;99153.16;7405273;19;20123;-50
2021/12/28 05:25:17;;;;;;;46.20;21.90;;;;;;;0.62;100.00;99150.84;7401320;19;20179;-51
2021/12/28 05:27:47;;;;;;;46.45;22.30;;;;;;;0.70;100.00;99150.41;7403512;19;20202;-50
2021/12/28 05:30:16;;;;;;;52.10;23.30;;;;;;;0.57;100.00;99142.13;7401594;19;20572;-48
2021/12/28 05:32:46;;;;;;;52.85;24.80;;;;;;;0.57;100.00;99139.59;7404533;19;20123;-52
2021/12/28 05:35:16;;;;;;;48.17;24.20;;;;;;;0.54;100.00;99136.88;7398201;19;20598;-50
2021/12/28 05:37:48;;;;;;;49.28;23.00;;;;;;;0.73;100.00;99135.34;7403559;19;20165;-49
2021/12/28 05:40:18;;;;;;;49.95;23.48;;;;;;;0.75;100.00;99128.69;7400064;19;20186;-55
2021/12/28 05:42:48;;;;;;;46.53;22.90;;;;;;;0.61;100.00;99122.88;7404473;19;20138;-48
2021/12/28 05:45:21;;;;;;;47.30;23.48;;;;;;;0.69;100.00;99131.78;7399946;19;20492;-52
2021/12/28 05:47:51;;;;;;;47.47;23.20;;;;;;;0.80;100.00;99129.81;7403040;19;20171;-52
2021/12/28 05:50:20;;;;;;;51.97;24.08;;;;;;;0.78;100.00;99139.03;7400072;19;20580;-55
2021/12/28 05:52:56;;;;;;;55.03;24.58;;;;;;;0.77;100.00;99143.22;7403860;19;20123;-51
2021/12/28 05:55:26;;;;;;;46.40;22.23;;;;;;;0.86;100.00;99140.31;7399231;19;20238;-51
2021/12/28 05:57:55;;;;;;;49.72;24.67;;;;;;;0.86;100.00;99131.84;7405393;19;20270;-55
2021/12/28 06:00:28;;;;;;;48.13;25.10;;;;;;;0.83;100.00;99126.56;7399966;19;20485;-53
2021/12/28 06:03:01;;;;;;;52.40;23.30;;;;;;;0.99;100.00;99125.75;7406728;19;20126;-53
2021/12/28 06:05:30;;;;;;;42.88;22.00;;;;;;;0.93;100.00;99121.22;7400203;19;20179;-53
2021/12/28 06:08:02;;;;;;;48.88;23.05;;;;;;;0.84;100.00;99131.75;7402149;19;20431;-54
2021/12/28 06:10:46;;;;;;;56.17;24.52;;;;;;;0.82;100.00;99123.16;7399201;19;20182;-50
2021/12/28 06:13:16;;;;;;;49.67;22.92;;;;;;;0.82;100.00;99130.75;7403050;19;20119;-52
2021/12/28 06:15:48;;;;;;;50.72;23.92;;;;;;;0.83;100.00;99121.50;7398963;19;20198;-48
2021/12/28 06:18:18;;;;;;;51.20;23.80;;;;;;;0.88;100.00;99117.56;7401384;19;20159;-52
2021/12/28 06:20:47;;;;;;;48.65;22.80;;;;;;;0.86;100.00;99125.06;7396393;19;20201;-51
2021/12/28 06:23:19;;;;;;;48.95;23.25;;;;;;;0.79;100.00;99117.91;7402969;19;20130;-49
2021/12/28 06:25:49;;;;;;;58.65;25.30;;;;;;;0.88;100.00;99120.09;7398381;19;20190;-54
2021/12/28 06:28:18;;;;;;;56.55;23.95;;;;;;;0.90;100.00;99121.03;7404618;19;20561;-55
2021/12/28 06:30:48;;;;;;;51.25;24.45;;;;;;;0.84;100.00;99121.59;7398760;19;20197;-53
2021/12/28 06:33:18;;;;;;;58.75;26.05;;;;;;;0.89;100.00;99125.25;7402353;19;20127;-51
2021/12/28 06:35:49;;;;;;;56.60;24.27;;;;;;;0.95;100.00;99119.63;7398110;19;20582;-53
2021/12/28 06:38:21;;;;;;;50.80;25.10;;;;;;;1.03;100.00;99120.91;7401318;19;20155;-48
2021/12/28 06:40:51;;;;;;;54.45;25.42;;;;;;;0.73;100.00;99123.56;7398683;19;20194;-50
2021/12/28 06:43:21;;;;;;;55.50;25.58;;;;;;;0.72;100.00;99116.69;7402703;19;20134;-53
2021/12/28 06:45:51;;;;;;;58.97;25.48;;;;;;;0.76;100.00;99117.72;7398044;19;20591;-51
2021/12/28 06:48:20;;;;;;;57.72;24.90;;;;;;;0.83;100.00;99114.78;7400744;19;20417;-55
2021/12/28 06:50:50;;;;;;;48.85;24.25;;;;;;;1.02;100.00;99111.53;7398595;19;20196;-55
2021/12/28 06:53:22;;;;;;;53.97;25.70;;;;;;;1.23;100.00;99115.16;7401942;19;20521;-52
2021/12/28 06:55:52;;;;;;;58.83;25.73;;;;;;;1.18;100.00;99104.75;7396258;19;20266;-52
2021/12/28 06:58:21;;;;;;;62.53;27.50;;;;;;;1.00;100.00;99107.16;7400246;19;20165;-53
2021/12/28 07:00:51;;;;;;;76.72;33.13;;;;;;;1.07;100.00;99111.78;7398190;19;20556;-54
2021/12/28 07:03:21;;;;;;;51.53;25.05;;;;;;;0.87;100.00;99110.72;7401884;19;20132;-51
2021/12/28 07:05:50;;;;;;;66.72;32.15;;;;;;;0.74;100.00;99104.09;7397863;19;20607;-51
2021/12/28 07:08:22;;;;;;;69.63;32.03;;;;;;;1.07;100.00;99101.63;7397099;19;20159;-54
2021/12/28 07:10:52;;;;;;;53.03;24.88;;;;;;;0.82;100.00;99095.22;7396818;19;20213;-53
2021/12/28 07:13:21;;;;;;;55.25;25.80;;;;;;;0.72;100.00;99100.59;7401471;19;20123;-52
2021/12/28 07:15:55;;;;;;;53.63;27.38;;;;;;;0.67;100.00;99093.59;7397177;19;20186;-51
2021/12/28 07:18:25;;;;;;;57.65;28.15;;;;;;;0.51;100.00;99099.50;7399513;19;20167;-55
2021/12/28 07:20:55;;;;;;;56.17;25.45;;;;;;;0.42;100.00;99091.41;7397607;19;20445;-52
2021/12/28 07:23:27;;;;;;;59.35;25.85;;;;;;;0.35;100.00;99090.16;7401044;19;20152;-54
2021/12/28 07:25:56;;;;;;;52.85;25.98;;;;;;;0.28;100.00;99085.53;7395748;19;20190;-52
2021/12/28 07:28:26;;;;;;;57.08;27.40;;;;;;;0.24;100.00;99076.00;7398794;19;20173;-55
2021/12/28 07:30:56;;;;;;;58.00;27.00;;;;;;;0.24;100.00;99076.00;7395325;19;20194;-51
2021/12/28 07:33:25;;;;;;;54.58;25.90;;;;;;;0.22;100.00;99075.03;7400617;19;20123;-50
2021/12/28 07:35:55;;;;;;;54.83;26.88;;;;;;;0.18;100.00;99068.94;7395750;19;20186;-51
2021/12/28 07:38:28;;;;;;;59.55;28.05;;;;;;;0.23;100.00;99070.06;7398843;19;20155;-50
2021/12/28 07:40:57;;;;;;;50.83;27.05;;;;;;;0.13;100.00;99063.59;7396290;19;20197;-50
2021/12/28 07:43:26;;;;;;;59.70;27.33;;;;;;;0.20;100.00;99053.78;7400310;19;20421;-54
2021/12/28 07:45:56;;;;;;;59.85;26.02;;;;;;;0.24;100.00;99058.22;7395765;19;20186;-50
2021/12/28 07:48:26;;;;;;;58.42;28.75;;;;;;;0.19;100.00;99059.63;7398540;19;20605;-50
2021/12/28 07:50:55;;;;;;;59.28;27.60;;;;;;;0.20;100.00;99049.59;7396278;19;20186;-52
2021/12/28 07:53:27;;;;;;;55.30;25.95;;;;;;;0.16;100.00;99051.88;7403509;19;20123;-53
2021/12/28 07:55:58;;;;;;;55.17;27.08;;;;;;;0.16;100.00;99042.59;7392525;19;20193;-49
2021/12/28 07:58:28;;;;;;;58.55;27.42;;;;;;;0.17;100.00;99038.38;7398360;19;20198;-53
2021/12/28 08:00:58;;;;;;;60.55;27.60;;;;;;;0.21;100.00;99028.50;7395081;19;20190;-55
2021/12/28 08:03:28;;;;;;;58.67;27.02;;;;;;;0.14;100.00;99034.03;7400082;19;20123;-50
2021/12/28 08:05:57;;;;;;;59.85;28.08;;;;;;;0.14;100.00;99018.81;7395064;19;20193;-51
2021/12/28 08:08:29;;;;;;;60.90;27.42;;;;;;;0.18;100.00;99025.81;7397876;19;20227;-55
2021/12/28 08:10:59;;;;;;;73.10;29.83;;;;;;;0.21;100.00;99025.09;7395710;19;20266;-53
2021/12/28 08:13:29;;;;;;;68.40;28.25;;;;;;;0.25;100.00;99021.91;7403832;19;20187;-56
2021/12/28 08:15:58;;;;;;;66.38;28.92;;;;;;;0.13;100.00;99028.09;7391886;19;20186;-53
2021/12/28 08:18:28;;;;;;;56.72;28.88;;;;;;;0.24;100.00;99023.59;7397647;19;20160;-51
2021/12/28 08:20:57;;;;;;;58.10;27.17;;;;;;;0.19;100.00;99026.66;7394612;19;20196;-51
2021/12/28 08:23:29;;;;;;;67.65;30.42;;;;;;;0.13;100.00;99027.19;7399099;19;20153;-52
2021/12/28 08:25:59;;;;;;;69.00;30.15;;;;;;;0.25;100.00;99032.06;7394937;19;20183;-52
2021/12/28 08:28:29;;;;;;;74.85;30.30;;;;;;;0.36;100.00;99032.69;7397295;19;20159;-54
2021/12/28 08:30:59;;;;;;;75.93;32.95;;;;;;;0.63;100.00;99019.75;7394541;19;20186;-53
2021/12/28 08:33:29;;;;;;;67.88;29.80;;;;;;;0.51;100.00;99025.03;7402806;19;20135;-53
2021/12/28 08:35:59;;;;;;;68.22;29.70;;;;;;;0.48;100.00;99025.75;7394488;19;20474;-52
2021/12/28 08:38:31;;;;;;;62.80;27.95;;;;;;;0.52;100.00;99026.78;7397170;19;20206;-51
2021/12/28 08:41:01;;;;;;;66.57;29.17;;;;;;;0.52;100.00;99016.63;7391922;19;20241;-53
2021/12/28 08:43:30;;;;;;;61.42;29.08;;;;;;;0.42;100.00;99015.25;7398650;19;20131;-54
2021/12/28 08:46:00;;;;;;;66.65;31.50;;;;;;;0.49;100.00;99016.44;7394134;19;20196;-51
2021/12/28 08:48:29;;;;;;;68.15;30.27;;;;;;;0.50;100.00;99008.03;7396942;19;20189;-51
2021/12/28 08:50:59;;;;;;;66.78;30.15;;;;;;;0.49;100.00;99014.78;7394680;19;20617;-54
2021/12/28 08:53:31;;;;;;;69.18;30.35;;;;;;;0.39;100.00;99018.50;7398609;19;20123;-55
2021/12/28 08:56:00;;;;;;;74.45;32.92;;;;;;;0.39;100.00;99018.50;7392551;19;20573;-50
2021/12/28 08:58:30;;;;;;;70.80;31.40;;;;;;;0.42;100.00;99015.25;7396974;19;20170;-54
2021/12/28 09:01:00;;;;;;;64.47;31.15;;;;;;;0.43;100.00;99014.47;7394957;19;20615;-48
2021/12/28 09:03:30;;;;;;;73.75;31.65;;;;;;;0.36;100.00;99013.25;7398110;19;20244;-51
2021/12/28 09:06:00;;;;;;;72.40;32.63;;;;;;;0.40;100.00;99017.69;7394568;19;20186;-53
2021/12/28 09:08:32;;;;;;;70.65;32.55;;;;;;;0.40;100.00;99017.69;7396236;19;20185;-54
2021/12/28 09:11:02;;;;;;;71.82;32.90;;;;;;;0.43;100.00;99011.94;7392394;19;20203;-53
2021/12/28 09:13:31;;;;;;;69.82;30.80;;;;;;;0.48;100.00;99017.25;7397907;19;20126;-51
2021/12/28 09:16:01;;;;;;;71.75;32.10;;;;;;;0.51;100.00;99014.88;7392160;19;20197;-53
2021/12/28 09:18:30;;;;;;;77.75;31.95;;;;;;;0.39;100.00;99005.81;7395880;19;20466;-50
2021/12/28 09:21:00;;;;;;;75.00;32.15;;;;;;;0.43;100.00;99013.56;7392668;19;20434;-49
2021/12/28 09:23:32;;;;;;;74.55;31.00;;;;;;;0.43;100.00;99017.00;7397543;19;20542;-54
2021/12/28 09:26:21;;;;;;;73.30;31.08;;;;;;;0.40;100.00;99012.63;7392949;19;20182;-51
2021/12/28 09:28:51;;;;;;;71.18;33.92;;;;;;;0.46;100.00;99008.69;7395335;19;20210;-55
2021/12/28 09:31:20;;;;;;;73.32;31.73;;;;;;;0.42;100.00;99006.75;7394660;19;20186;-51
2021/12/28 09:33:53;;;;;;;71.38;31.80;;;;;;;0.47;100.00;99010.44;7404496;19;20127;-53
2021/12/28 09:36:22;;;;;;;68.50;30.20;;;;;;;0.63;100.00;98999.44;7398080;19;20193;-53
2021/12/28 09:38:54;;;;;;;65.55;29.67;;;;;;;0.44;100.00;99007.72;7402106;19;20460;-53
2021/12/28 09:41:24;;;;;;;76.55;31.50;;;;;;;0.51;100.00;99007.28;7400429;19;20465;-53
2021/12/28 09:43:53;;;;;;;62.13;28.25;;;;;;;0.51;100.00;98997.13;7404177;19;20139;-49
2021/12/28 09:46:23;;;;;;;77.82;30.98;;;;;;;0.50;100.00;98992.81;7401432;19;20189;-50
2021/12/28 09:48:52;;;;;;;72.25;29.38;;;;;;;0.45;100.00;98995.09;7401795;19;20426;-51
2021/12/28 09:51:22;;;;;;;66.90;30.20;;;;;;;0.51;100.00;98989.50;7396951;19;20518;-54
2021/12/28 09:53:55;;;;;;;72.45;29.45;;;;;;;0.48;100.00;98986.78;7403927;19;20189;-52
2021/12/28 09:56:25;;;;;;;72.13;32.65;;;;;;;0.55;100.00;98988.84;7397973;19;20190;-56
2021/12/28 09:58:55;;;;;;;68.32;31.02;;;;;;;0.58;100.00;98985.63;7401430;19;20241;-54
2021/12/28 10:01:29;;;;;;;79.65;33.17;;;;;;;0.62;100.00;98992.59;7398667;19;20181;-52
2021/12/28 10:03:59;;;;;;;78.30;30.65;;;;;;;0.55;100.00;98988.84;7407917;19;20198;-53
2021/12/28 10:06:31;;;;;;;70.35;32.15;;;;;;;0.66;100.00;98985.22;7399792;19;20267;-53
2021/12/28 10:09:12;;;;;;;70.93;31.65;;;;;;;0.60;100.00;98974.75;7400778;19;20165;-50
2021/12/28 10:11:45;;;;;;;66.63;29.58;;;;;;;0.62;100.00;98985.84;7400622;19;20190;-51
2021/12/28 10:14:16;;;;;;;70.78;33.00;;;;;;;0.63;100.00;98977.47;7403390;19;20183;-52
2021/12/28 10:16:50;;;;;;;80.85;33.08;;;;;;;0.64;100.00;98979.22;7400116;19;20174;-53
2021/12/28 10:19:33;;;;;;;83.00;30.80;;;;;;;0.62;100.00;98972.31;7400134;19;20137;-54
2021/12/28 10:22:25;;;;;;;71.88;31.25;;;;;;;0.62;100.00;98968.06;7402927;19;20150;-48
2021/12/28 10:24:58;;;;;;;67.43;31.77;;;;;;;0.53;100.00;98967.59;7402531;19;20120;-48
2021/12/28 10:27:31;;;;;;;82.85;33.95;;;;;;;0.56;100.00;98967.75;7401434;19;20601;-55
2021/12/28 10:30:07;;;;;;;76.50;32.55;;;;;;;0.63;100.00;98968.97;7397143;19;20254;-52
2021/12/28 10:32:37;;;;;;;72.47;31.10;;;;;;;0.61;100.00;98951.09;7402661;19;20118;-51
2021/12/28 10:35:10;;;;;;;77.40;31.70;;;;;;;0.61;100.00;98951.09;7396351;19;20187;-52
2021/12/28 10:37:41;;;;;;;76.97;32.80;;;;;;;0.62;100.00;98946.91;7399938;19;20225;-53
2021/12/28 10:40:15;;;;;;;69.65;30.70;;;;;;;0.71;100.00;98938.91;7395743;19;20633;-52
2021/12/28 10:42:50;;;;;;;71.20;30.80;;;;;;;0.74;100.00;98939.94;7401893;19;20138;-50
2021/12/28 10:45:22;;;;;;;69.72;31.08;;;;;;;0.78;100.00;98941.81;7398468;19;20196;-57
2021/12/28 10:47:52;;;;;;;79.05;31.95;;;;;;;0.84;100.00;98951.44;7401273;19;20168;-52
2021/12/28 10:50:31;;;;;;;84.53;33.08;;;;;;;0.89;100.00;98952.56;7398536;19;20238;-52
2021/12/28 10:53:10;;;;;;;88.35;35.20;;;;;;;0.99;100.00;98947.94;7401923;19;20163;-53
2021/12/28 10:55:44;;;;;;;73.88;32.13;;;;;;;0.91;100.00;98939.91;7401184;19;20133;-52
2021/12/28 10:58:41;;;;;;;66.68;29.15;;;;;;;0.83;100.00;98931.03;7393775;19;20186;-55
2021/12/28 11:01:14;;;;;;;75.22;32.30;;;;;;;0.92;100.00;98927.31;7401770;19;20435;-52
2021/12/28 11:03:45;;;;;;;79.45;32.30;;;;;;;0.95;100.00;98916.44;7395509;19;20470;-51
2021/12/28 11:06:20;;;;;;;70.43;31.38;;;;;;;0.91;100.00;98920.50;7403335;19;20150;-54
2021/12/28 11:08:51;;;;;;;67.18;28.02;;;;;;;1.07;100.00;98911.09;7392863;19;20241;-48
2021/12/28 11:11:25;;;;;;;70.70;29.95;;;;;;;1.38;100.00;98920.22;7404523;19;20187;-54
2021/12/28 11:13:56;;;;;;;75.82;32.28;;;;;;;1.52;100.00;98902.25;7396555;19;20192;-55
2021/12/28 11:16:30;;;;;;;76.30;31.67;;;;;;;1.38;100.00;98907.53;7399929;19;20127;-52
2021/12/28 11:19:01;;;;;;;77.32;33.00;;;;;;;1.28;100.00;98905.34;7396822;19;20198;-51
2021/12/28 11:21:33;;;;;;;78.10;30.13;;;;;;;1.24;100.00;98900.91;7401146;19;20219;-48
2021/12/28 11:24:05;;;;;;;78.95;34.75;;;;;;;1.16;100.00;98898.84;7396798;19;20457;-54
2021/12/28 11:26:41;;;;;;;93.97;33.15;;;;;;;1.25;100.00;98895.03;7400282;19;20601;-56
2021/12/28 11:29:15;;;;;;;95.53;37.20;;;;;;;1.32;100.00;98880.16;7396725;19;20186;-55
2021/12/28 11:31:50;;;;;;;99.78;37.55;;;;;;;1.32;100.00;98876.72;7400939;19;20133;-50
2021/12/28 11:34:24;;;;;;;90.38;36.22;;;;;;;1.17;100.00;98877.72;7396489;19;20206;-53